Time;durP1;ratioP1;P1;durP2;ratioP2;P2;SDS_P1;SDS_P2;PMS_P1;PMS_P2;Temp;Humidity;BMP_temperature;BMP_pressure;BME280_temperature;BME280_humidity;BME280_pressure;Samples;Min_cycle;Max_cycle;Signal;HPM_P1;HPM_P2
2024/01/30 00:02:32;;;;;;;643.13;41.92;;;;;;;;;;6143008;23;20029;-63
2024/01/30 00:05:19;;;;;;;472.60;35.95;;;;;;;;;;6143771;23;20025;-63
2024/01/30 00:08:14;;;;;;;389.90;31.83;;;;;;;;;;6143154;23;20057;-53
2024/01/30 00:11:01;;;;;;;269.13;29.17;;;;;;;;;;6142932;23;20024;-52
2024/01/30 00:13:58;;;;;;;409.30;31.70;;;;;;;;;;6142819;23;20025;-52
2024/01/30 00:16:51;;;;;;;389.13;29.60;;;;;;;;;;6142344;23;20029;-52
2024/01/30 00:19:32;;;;;;;447.27;31.50;;;;;;;;;;6141348;23;20709;-61
2024/01/30 00:21:59;;;;;;;649.95;41.72;;;;;;;;;;6143760;23;20029;-65
2024/01/30 00:24:33;;;;;;;304.23;26.02;;;;;;;;;;6143076;23;20747;-67
2024/01/30 00:27:00;;;;;;;349.17;25.48;;;;;;;;;;6144236;23;20088;-67
2024/01/30 00:29:30;;;;;;;285.90;26.70;;;;;;;;;;6144514;23;20403;-68
2024/01/30 00:32:04;;;;;;;473.77;35.50;;;;;;;;;;6140512;23;20044;-68
2024/01/30 00:34:31;;;;;;;696.83;41.58;;;;;;;;;;6141350;23;20538;-68
2024/01/30 00:37:05;;;;;;;295.48;25.23;;;;;;;;;;6143256;23;20025;-58
2024/01/30 00:39:33;;;;;;;612.72;36.72;;;;;;;;;;6141550;23;20108;-58
2024/01/30 00:42:00;;;;;;;537.28;35.03;;;;;;;;;;6142332;23;20080;-58
2024/01/30 00:44:38;;;;;;;220.13;23.85;;;;;;;;;;6145249;23;20029;-59
2024/01/30 00:47:06;;;;;;;392.00;27.20;;;;;;;;;;6143473;23;20030;-62
2024/01/30 00:49:39;;;;;;;226.30;23.45;;;;;;;;;;6143033;23;20029;-59
2024/01/30 00:52:07;;;;;;;;;;;;;;;;;;6142888;23;20021;-59
2024/01/30 00:54:34;;;;;;;486.00;31.67;;;;;;;;;;6143330;23;19921;-59
2024/01/30 00:57:08;;;;;;;292.20;26.15;;;;;;;;;;6145421;23;20025;-58
2024/01/30 00:59:35;;;;;;;628.22;39.22;;;;;;;;;;6144921;23;20076;-58
2024/01/30 01:02:09;;;;;;;328.13;28.58;;;;;;;;;;6142548;23;20025;-59
2024/01/30 01:04:37;;;;;;;450.65;33.05;;;;;;;;;;6143967;23;20025;-61
2024/01/30 01:07:04;;;;;;;410.13;30.88;;;;;;;;;;6143360;23;20048;-61
2024/01/30 01:09:38;;;;;;;464.30;31.40;;;;;;;;;;6119541;23;20083;-62
2024/01/30 01:12:06;;;;;;;456.35;32.42;;;;;;;;;;6144622;23;20100;-61
2024/01/30 01:14:40;;;;;;;552.95;38.22;;;;;;;;;;6145537;23;20025;-61
2024/01/30 01:17:14;;;;;;;634.60;42.00;;;;;;;;;;6144744;23;20076;-62
2024/01/30 01:19:48;;;;;;;563.85;38.17;;;;;;;;;;6143812;23;20475;-61
2024/01/30 01:22:22;;;;;;;331.23;28.52;;;;;;;;;;6143809;23;20025;-61
2024/01/30 01:24:56;;;;;;;464.27;32.55;;;;;;;;;;6142852;23;20033;-61
2024/01/30 01:27:32;;;;;;;584.17;36.63;;;;;;;;;;6144369;23;20029;-61
2024/01/30 01:30:07;;;;;;;346.20;28.77;;;;;;;;;;6145434;23;20733;-61
2024/01/30 01:32:34;;;;;;;374.35;29.30;;;;;;;;;;6145192;23;20021;-68
2024/01/30 01:35:02;;;;;;;227.73;25.77;;;;;;;;;;6144602;23;20044;-67
2024/01/30 01:37:36;;;;;;;174.38;22.05;;;;;;;;;;6143500;23;20359;-68
2024/01/30 01:40:03;;;;;;;145.13;21.55;;;;;;;;;;6142457;23;20538;-67
2024/01/30 01:42:30;;;;;;;456.67;31.08;;;;;;;;;;6145345;23;20069;-63
2024/01/30 01:45:05;;;;;;;287.23;26.00;;;;;;;;;;6145717;23;20497;-54
2024/01/30 01:47:33;;;;;;;218.65;22.70;;;;;;;;;;6116707;23;20233;-60
2024/01/30 01:50:06;;;;;;;356.58;29.15;;;;;;;;;;6144490;23;20052;-60
2024/01/30 01:52:34;;;;;;;;;;;;;;;;;;6143932;23;20029;-60
2024/01/30 01:55:01;;;;;;;171.00;20.20;;;;;;;;;;6143308;23;19944;-60
2024/01/30 01:57:36;;;;;;;386.17;30.30;;;;;;;;;;6144176;23;20030;-60
2024/01/30 02:00:04;;;;;;;;;;;;;;;;;;6146113;23;20032;-60
2024/01/30 02:02:33;;;;;;;613.42;38.30;;;;;;;;;;6144306;23;19924;-64
2024/01/30 02:05:09;;;;;;;474.33;32.10;;;;;;;;;;6145273;23;20025;-64
2024/01/30 02:07:36;;;;;;;216.55;20.80;;;;;;;;;;6143435;23;20033;-63
2024/01/30 02:10:04;;;;;;;266.38;24.17;;;;;;;;;;6143049;23;20265;-64
2024/01/30 02:12:38;;;;;;;351.45;24.40;;;;;;;;;;6144139;23;20025;-63
2024/01/30 02:15:07;;;;;;;520.63;34.10;;;;;;;;;;6144875;23;20027;-52
2024/01/30 02:17:47;;;;;;;301.92;28.27;;;;;;;;;;6144363;23;20392;-52
2024/01/30 02:20:14;;;;;;;500.27;34.28;;;;;;;;;;6142653;23;20573;-52
2024/01/30 02:22:49;;;;;;;497.20;37.10;;;;;;;;;;6138626;23;20100;-54
2024/01/30 02:25:16;;;;;;;315.92;27.50;;;;;;;;;;6141621;23;20431;-51
2024/01/30 02:27:43;;;;;;;278.10;28.10;;;;;;;;;;6144293;23;20025;-51
2024/01/30 02:30:17;;;;;;;158.15;20.85;;;;;;;;;;6144787;23;20471;-48
2024/01/30 02:32:44;;;;;;;195.35;22.38;;;;;;;;;;6143639;23;20037;-53
2024/01/30 02:35:39;;;;;;;467.38;38.92;;;;;;;;;;6143613;23;20467;-50
2024/01/30 02:38:26;;;;;;;319.08;28.42;;;;;;;;;;6142772;23;20245;-49
2024/01/30 02:41:19;;;;;;;131.38;22.05;;;;;;;;;;6144514;23;20025;-57
2024/01/30 02:44:13;;;;;;;140.90;25.15;;;;;;;;;;6142788;23;20018;-50
2024/01/30 02:47:00;;;;;;;117.97;25.65;;;;;;;;;;6141719;23;20022;-49
2024/01/30 02:49:54;;;;;;;205.50;31.92;;;;;;;;;;6144665;23;20032;-49
2024/01/30 02:52:45;;;;;;;86.17;23.73;;;;;;;;;;6144584;23;20084;-52
2024/01/30 02:55:39;;;;;;;90.35;22.40;;;;;;;;;;6143379;23;20025;-54
2024/01/30 02:58:27;;;;;;;149.80;30.45;;;;;;;;;;6145188;23;20029;-64
2024/01/30 03:01:20;;;;;;;157.65;30.00;;;;;;;;;;6145312;23;20467;-63
2024/01/30 03:04:08;;;;;;;169.10;28.63;;;;;;;;;;6142576;23;20047;-63
2024/01/30 03:07:01;;;;;;;562.25;42.40;;;;;;;;;;6143325;23;20406;-63
2024/01/30 03:09:49;;;;;;;415.92;33.20;;;;;;;;;;6143286;23;20033;-60
2024/01/30 03:12:42;;;;;;;458.20;36.40;;;;;;;;;;6142980;23;20087;-59
2024/01/30 03:15:30;;;;;;;156.45;24.70;;;;;;;;;;6144179;23;20063;-56
2024/01/30 03:18:30;;;;;;;317.27;31.00;;;;;;;;;;6143487;23;20447;-58
2024/01/30 03:21:24;;;;;;;163.40;25.70;;;;;;;;;;6144352;23;20084;-57
2024/01/30 03:24:17;;;;;;;315.85;31.13;;;;;;;;;;6143672;23;20101;-57
2024/01/30 03:27:05;;;;;;;183.90;27.25;;;;;;;;;;6145188;23;20242;-62
2024/01/30 03:29:58;;;;;;;217.27;28.48;;;;;;;;;;6144634;23;20024;-62
2024/01/30 03:32:46;;;;;;;320.70;31.02;;;;;;;;;;6143081;23;20073;-62
2024/01/30 03:35:39;;;;;;;362.42;31.73;;;;;;;;;;6143728;23;20315;-62
2024/01/30 03:38:27;;;;;;;436.35;37.83;;;;;;;;;;6142501;23;20029;-58
2024/01/30 03:41:20;;;;;;;160.63;26.52;;;;;;;;;;6143396;23;20395;-55
2024/01/30 03:44:07;;;;;;;550.65;43.15;;;;;;;;;;6141374;23;20089;-55
2024/01/30 03:47:01;;;;;;;426.73;28.77;;;;;;;;;;6143769;23;20026;-51
2024/01/30 03:49:48;;;;;;;607.63;41.58;;;;;;;;;;6142814;23;20025;-55
2024/01/30 03:52:42;;;;;;;648.78;49.20;;;;;;;;;;6142574;23;20025;-54
2024/01/30 03:55:29;;;;;;;456.25;34.10;;;;;;;;;;6142656;23;20029;-67
2024/01/30 03:58:23;;;;;;;589.08;37.78;;;;;;;;;;6142686;23;20285;-67
2024/01/30 04:01:16;;;;;;;639.65;43.70;;;;;;;;;;6143060;23;20026;-67
2024/01/30 04:04:10;;;;;;;259.70;24.15;;;;;;;;;;6143628;23;20210;-67
2024/01/30 04:07:05;;;;;;;82.47;20.98;;;;;;;;;;6144934;23;20025;-55
2024/01/30 04:09:52;;;;;;;67.25;19.17;;;;;;;;;;6141899;23;20025;-61
2024/01/30 04:12:46;;;;;;;48.63;17.15;;;;;;;;;;6142932;23;20519;-62
2024/01/30 04:15:37;;;;;;;47.17;17.27;;;;;;;;;;6143252;23;20032;-61
2024/01/30 04:18:37;;;;;;;47.85;17.23;;;;;;;;;;6145100;23;20865;-63
2024/01/30 04:21:24;;;;;;;42.03;15.90;;;;;;;;;;6146724;23;20056;-62
2024/01/30 04:24:19;;;;;;;39.78;15.63;;;;;;;;;;6146930;23;20102;-49
2024/01/30 04:27:06;;;;;;;34.90;14.55;;;;;;;;;;6145460;23;20025;-53
2024/01/30 04:30:00;;;;;;;37.17;16.15;;;;;;;;;;6144397;23;20132;-49
2024/01/30 04:32:47;;;;;;;58.97;18.90;;;;;;;;;;6144229;23;20077;-53
2024/01/30 04:35:40;;;;;;;93.82;23.73;;;;;;;;;;6144661;23;20101;-53
2024/01/30 04:38:27;;;;;;;57.53;17.75;;;;;;;;;;6143988;23;20057;-67
2024/01/30 04:41:21;;;;;;;52.53;17.38;;;;;;;;;;6142378;23;20415;-67
2024/01/30 04:44:08;;;;;;;772.75;50.05;;;;;;;;;;6144007;23;20033;-68
2024/01/30 04:47:03;;;;;;;814.85;48.20;;;;;;;;;;6143209;23;20018;-67
2024/01/30 04:49:56;;;;;;;646.65;41.35;;;;;;;;;;6144082;23;20072;-68
2024/01/30 04:52:44;;;;;;;77.15;18.70;;;;;;;;;;6144707;23;20022;-62
2024/01/30 04:55:37;;;;;;;43.55;15.55;;;;;;;;;;6141700;23;20456;-61
2024/01/30 04:58:24;;;;;;;82.88;20.77;;;;;;;;;;6144823;23;20077;-61
2024/01/30 05:01:18;;;;;;;58.03;18.65;;;;;;;;;;6142911;23;20056;-61
2024/01/30 05:04:08;;;;;;;68.03;17.85;;;;;;;;;;6145391;23;20100;-49
2024/01/30 05:07:02;;;;;;;90.07;19.23;;;;;;;;;;6145640;23;20471;-60
2024/01/30 05:09:49;;;;;;;104.05;20.58;;;;;;;;;;6145831;23;20378;-60
2024/01/30 05:12:42;;;;;;;101.57;22.10;;;;;;;;;;6147957;23;20022;-59
2024/01/30 05:15:30;;;;;;;90.75;22.23;;;;;;;;;;6144507;23;20077;-60
2024/01/30 05:18:30;;;;;;;110.22;24.05;;;;;;;;;;6142265;23;20337;-59
2024/01/30 05:21:17;;;;;;;150.35;26.02;;;;;;;;;;6145637;23;20455;-62
2024/01/30 05:24:12;;;;;;;134.82;23.52;;;;;;;;;;6145861;23;20403;-63
2024/01/30 05:27:05;;;;;;;441.52;34.10;;;;;;;;;;6144443;23;20021;-63
2024/01/30 05:29:53;;;;;;;730.00;46.60;;;;;;;;;;6142923;23;20022;-63
2024/01/30 05:32:46;;;;;;;128.38;21.10;;;;;;;;;;6144950;23;20021;-54
2024/01/30 05:35:37;;;;;;;117.25;20.30;;;;;;;;;;6143492;23;20060;-56
2024/01/30 05:38:31;;;;;;;142.32;22.85;;;;;;;;;;6142887;23;20510;-55
2024/01/30 05:41:18;;;;;;;49.75;17.73;;;;;;;;;;6143436;23;20428;-55
2024/01/30 05:44:12;;;;;;;46.70;16.45;;;;;;;;;;6139948;23;20026;-54
2024/01/30 05:46:59;;;;;;;40.35;14.50;;;;;;;;;;6143663;23;20053;-55
2024/01/30 05:49:52;;;;;;;47.95;15.82;;;;;;;;;;6141673;23;20021;-65
2024/01/30 05:52:40;;;;;;;48.58;17.00;;;;;;;;;;6141282;23;20511;-64
2024/01/30 05:55:33;;;;;;;64.75;20.42;;;;;;;;;;6142622;23;20033;-64
2024/01/30 05:58:21;;;;;;;42.90;15.05;;;;;;;;;;6143635;23;20081;-64
2024/01/30 06:01:14;;;;;;;47.38;16.83;;;;;;;;;;6144874;23;20025;-62
2024/01/30 06:04:02;;;;;;;52.85;16.20;;;;;;;;;;6142460;23;20033;-62
2024/01/30 06:06:56;;;;;;;52.55;16.23;;;;;;;;;;6142538;23;20097;-62
2024/01/30 06:09:43;;;;;;;39.70;14.32;;;;;;;;;;6147331;23;20503;-62
2024/01/30 06:12:37;;;;;;;42.38;15.23;;;;;;;;;;6146420;23;20029;-62
2024/01/30 06:15:32;;;;;;;39.78;15.35;;;;;;;;;;6146576;23;20039;-62
2024/01/30 06:18:26;;;;;;;40.63;14.30;;;;;;;;;;6146851;23;20033;-62
2024/01/30 06:21:18;;;;;;;37.47;15.13;;;;;;;;;;6147192;23;20029;-62
2024/01/30 06:24:06;;;;;;;39.58;14.40;;;;;;;;;;6146150;23;20018;-62
2024/01/30 06:27:00;;;;;;;37.38;14.48;;;;;;;;;;6145472;23;20026;-61
2024/01/30 06:29:47;;;;;;;44.20;16.02;;;;;;;;;;6143080;23;20022;-61
2024/01/30 06:32:40;;;;;;;33.55;15.30;;;;;;;;;;6146023;23;20029;-56
2024/01/30 06:35:28;;;;;;;34.17;13.75;;;;;;;;;;6145405;23;20028;-51
2024/01/30 06:38:21;;;;;;;39.20;14.57;;;;;;;;;;6144767;23;20081;-52
2024/01/30 06:41:09;;;;;;;34.17;14.10;;;;;;;;;;6145320;23;20084;-49
2024/01/30 06:44:04;;;;;;;28.88;12.25;;;;;;;;;;6144381;23;20029;-49
2024/01/30 06:46:50;;;;;;;42.03;16.00;;;;;;;;;;6143565;23;20510;-63
2024/01/30 06:49:45;;;;;;;301.25;26.15;;;;;;;;;;6144483;23;20025;-63
2024/01/30 06:52:39;;;;;;;97.82;18.83;;;;;;;;;;6144775;23;20025;-63
2024/01/30 06:55:32;;;;;;;42.20;13.95;;;;;;;;;;6144561;23;20099;-52
2024/01/30 06:58:20;;;;;;;32.90;13.30;;;;;;;;;;6145656;23;20032;-50
2024/01/30 07:01:13;;;;;;;21.80;11.02;;;;;;;;;;6145046;23;20400;-62
2024/01/30 07:04:01;;;;;;;30.48;13.75;;;;;;;;;;6145315;23;20080;-63
2024/01/30 07:06:55;;;;;;;27.20;12.32;;;;;;;;;;6146497;23;20088;-62
2024/01/30 07:09:43;;;;;;;28.10;12.65;;;;;;;;;;6145975;23;20033;-62
2024/01/30 07:12:36;;;;;;;61.20;18.15;;;;;;;;;;6145946;23;20025;-62
2024/01/30 07:15:24;;;;;;;49.28;16.30;;;;;;;;;;6146731;23;20398;-65
2024/01/30 07:18:24;;;;;;;28.42;13.02;;;;;;;;;;6145889;23;20104;-65
2024/01/30 07:21:12;;;;;;;31.92;14.80;;;;;;;;;;6145043;23;20076;-65
2024/01/30 07:24:05;;;;;;;42.88;16.92;;;;;;;;;;6143521;23;20022;-48
2024/01/30 07:26:53;;;;;;;44.22;16.70;;;;;;;;;;6144537;23;20025;-60
2024/01/30 07:29:46;;;;;;;23.60;12.40;;;;;;;;;;6144936;23;20025;-52
2024/01/30 07:32:34;;;;;;;30.52;13.60;;;;;;;;;;6144196;23;20026;-56
2024/01/30 07:35:27;;;;;;;34.72;15.02;;;;;;;;;;6144072;23;20395;-54
2024/01/30 07:38:15;;;;;;;34.40;14.52;;;;;;;;;;6145364;23;20021;-55
2024/01/30 07:41:08;;;;;;;32.65;14.52;;;;;;;;;;6145018;23;20026;-54
2024/01/30 07:44:03;;;;;;;34.95;15.27;;;;;;;;;;6144964;23;20022;-61
2024/01/30 07:46:51;;;;;;;35.50;15.48;;;;;;;;;;6142979;23;20026;-62
2024/01/30 07:49:44;;;;;;;31.67;14.80;;;;;;;;;;6144049;23;20028;-62
2024/01/30 07:52:32;;;;;;;33.92;14.55;;;;;;;;;;6145174;23;20422;-60
2024/01/30 07:55:28;;;;;;;54.25;18.15;;;;;;;;;;6148345;23;20072;-63
2024/01/30 07:58:13;;;;;;;23.02;12.57;;;;;;;;;;6147799;23;20022;-53
2024/01/30 08:01:07;;;;;;;54.78;13.63;;;;;;;;;;6149195;23;20528;-51
2024/01/30 08:03:54;;;;;;;29.85;14.57;;;;;;;;;;6150416;23;20028;-55
2024/01/30 08:06:47;;;;;;;24.80;12.27;;;;;;;;;;6149520;23;20407;-55
2024/01/30 08:09:35;;;;;;;27.73;13.60;;;;;;;;;;6127286;23;20029;-54
2024/01/30 08:12:28;;;;;;;29.80;13.82;;;;;;;;;;6148581;23;20026;-62
2024/01/30 08:15:16;;;;;;;27.05;13.00;;;;;;;;;;6147304;23;20105;-62
2024/01/30 08:18:16;;;;;;;30.40;14.07;;;;;;;;;;6147622;23;20362;-62
2024/01/30 08:21:10;;;;;;;16.48;10.70;;;;;;;;;;6147025;23;20025;-62
2024/01/30 08:24:06;;;;;;;24.77;12.40;;;;;;;;;;6148743;23;20592;-58
2024/01/30 08:26:53;;;;;;;19.60;10.93;;;;;;;;;;6146812;23;20381;-58
2024/01/30 08:29:54;;;;;;;22.45;11.68;;;;;;;;;;6146714;23;20021;-59
2024/01/30 08:32:48;;;;;;;31.55;13.48;;;;;;;;;;6146070;23;20025;-59
2024/01/30 08:35:42;;;;;;;24.30;11.45;;;;;;;;;;6146779;23;20025;-58
2024/01/30 08:38:29;;;;;;;28.80;12.30;;;;;;;;;;6147506;23;20032;-59
2024/01/30 08:41:28;;;;;;;19.20;9.95;;;;;;;;;;6147780;23;20479;-59
2024/01/30 08:44:22;;;;;;;21.20;10.70;;;;;;;;;;6146924;23;20032;-60
2024/01/30 08:47:17;;;;;;;21.83;10.27;;;;;;;;;;6147446;23;20022;-59
2024/01/30 08:50:10;;;;;;;20.00;10.07;;;;;;;;;;6147882;23;20022;-62
2024/01/30 08:52:58;;;;;;;19.55;9.10;;;;;;;;;;6147598;23;20021;-62
2024/01/30 08:55:51;;;;;;;18.55;9.85;;;;;;;;;;6147168;23;20414;-62
2024/01/30 08:58:38;;;;;;;19.85;10.07;;;;;;;;;;6148643;23;20323;-62
2024/01/30 09:01:32;;;;;;;21.00;10.02;;;;;;;;;;6147301;23;20080;-62
2024/01/30 09:04:33;;;;;;;28.55;11.50;;;;;;;;;;6146066;23;20025;-62
2024/01/30 09:07:29;;;;;;;24.10;11.60;;;;;;;;;;6148016;23;20083;-60
2024/01/30 09:10:17;;;;;;;35.08;14.45;;;;;;;;;;6148025;23;20613;-63
2024/01/30 09:13:11;;;;;;;29.38;12.02;;;;;;;;;;6147664;23;20052;-63
2024/01/30 09:15:58;;;;;;;27.98;11.63;;;;;;;;;;6147091;23;20021;-63
2024/01/30 09:18:59;;;;;;;23.30;10.50;;;;;;;;;;6146019;23;20028;-51
2024/01/30 09:21:46;;;;;;;23.35;9.57;;;;;;;;;;6146486;23;20591;-52
2024/01/30 09:24:40;;;;;;;21.40;9.23;;;;;;;;;;6145138;23;20022;-47
2024/01/30 09:27:27;;;;;;;23.40;9.73;;;;;;;;;;6146124;23;20017;-52
2024/01/30 09:30:21;;;;;;;22.20;9.50;;;;;;;;;;6146049;23;20021;-50
2024/01/30 09:33:09;;;;;;;14.20;8.15;;;;;;;;;;6146352;23;20333;-48
2024/01/30 09:36:09;;;;;;;15.82;8.98;;;;;;;;;;6145125;23;20527;-60
2024/01/30 09:38:56;;;;;;;17.23;8.68;;;;;;;;;;6146415;23;20084;-61
2024/01/30 09:41:56;;;;;;;13.68;8.18;;;;;;;;;;6144367;23;20029;-60
2024/01/30 09:44:44;;;;;;;14.60;9.25;;;;;;;;;;6144747;23;20021;-60
2024/01/30 09:47:44;;;;;;;17.83;10.00;;;;;;;;;;6146133;23;20021;-63
2024/01/30 09:50:31;;;;;;;21.02;10.75;;;;;;;;;;6144852;23;20088;-60
2024/01/30 09:53:25;;;;;;;25.38;11.77;;;;;;;;;;6145486;23;20028;-59
2024/01/30 09:56:16;;;;;;;20.63;11.45;;;;;;;;;;6144797;23;20021;-58
2024/01/30 09:59:10;;;;;;;17.98;10.60;;;;;;;;;;6147217;23;20029;-58
2024/01/30 10:01:57;;;;;;;29.48;12.20;;;;;;;;;;6145216;23;20072;-59
2024/01/30 10:04:51;;;;;;;22.70;11.85;;;;;;;;;;6143576;23;20411;-59
2024/01/30 10:07:39;;;;;;;20.25;11.52;;;;;;;;;;6144421;23;20076;-59
2024/01/30 10:10:33;;;;;;;20.60;10.30;;;;;;;;;;6144128;23;20092;-59
2024/01/30 10:13:20;;;;;;;16.33;9.77;;;;;;;;;;6146755;23;20104;-59
2024/01/30 10:16:16;;;;;;;16.58;9.05;;;;;;;;;;6146291;23;20028;-54
2024/01/30 10:19:09;;;;;;;20.87;10.27;;;;;;;;;;6144291;23;20036;-55
2024/01/30 10:22:03;;;;;;;18.00;8.55;;;;;;;;;;6145574;23;20332;-53
2024/01/30 10:24:51;;;;;;;37.47;12.43;;;;;;;;;;6144526;23;20029;-55
2024/01/30 10:27:46;;;;;;;101.40;13.38;;;;;;;;;;6145361;23;20026;-58
2024/01/30 10:30:33;;;;;;;23.17;10.57;;;;;;;;;;6144834;23;20057;-55
2024/01/30 10:33:32;;;;;;;26.85;11.73;;;;;;;;;;6145428;23;20693;-52
2024/01/30 10:36:43;;;;;;;31.92;12.48;;;;;;;;;;6144872;23;20057;-54
2024/01/30 10:39:31;;;;;;;21.38;11.02;;;;;;;;;;6143616;23;20035;-53
2024/01/30 10:42:28;;;;;;;19.27;9.75;;;;;;;;;;6144444;23;20026;-50
2024/01/30 10:45:15;;;;;;;18.38;9.82;;;;;;;;;;6144208;23;20026;-62
2024/01/30 10:48:10;;;;;;;14.00;9.02;;;;;;;;;;6144625;23;20024;-57
2024/01/30 10:51:05;;;;;;;17.88;9.57;;;;;;;;;;6144149;23;20101;-58
2024/01/30 10:53:58;;;;;;;20.35;9.63;;;;;;;;;;6145859;23;20039;-58
2024/01/30 10:56:46;;;;;;;16.27;8.80;;;;;;;;;;6144740;23;20026;-58
2024/01/30 10:59:40;;;;;;;15.93;7.65;;;;;;;;;;6144230;23;20064;-58
2024/01/30 11:02:28;;;;;;;12.38;6.43;;;;;;;;;;6144911;23;20025;-47
2024/01/30 11:05:29;;;;;;;11.40;6.88;;;;;;;;;;6144106;23;20021;-52
2024/01/30 11:08:15;;;;;;;8.98;6.15;;;;;;;;;;6144828;23;20030;-53
2024/01/30 11:11:10;;;;;;;11.98;6.88;;;;;;;;;;6143432;23;20532;-53
2024/01/30 11:14:01;;;;;;;12.55;7.60;;;;;;;;;;6145270;23;20025;-62
2024/01/30 11:16:57;;;;;;;9.15;6.15;;;;;;;;;;6144517;23;20025;-66
2024/01/30 11:19:53;;;;;;;11.23;6.55;;;;;;;;;;6144568;23;20104;-65
2024/01/30 11:22:48;;;;;;;11.73;6.65;;;;;;;;;;6145002;23;20030;-65
2024/01/30 11:25:36;;;;;;;12.73;6.90;;;;;;;;;;6144867;23;20076;-65
2024/01/30 11:28:36;;;;;;;14.45;7.72;;;;;;;;;;6145066;23;20412;-66
2024/01/30 11:31:23;;;;;;;11.93;7.00;;;;;;;;;;6125575;23;20471;-59
2024/01/30 11:34:18;;;;;;;16.42;8.50;;;;;;;;;;6144657;23;20049;-59
2024/01/30 11:37:10;;;;;;;16.45;7.93;;;;;;;;;;6144968;23;20084;-58
2024/01/30 11:40:27;;;;;;;17.60;8.32;;;;;;;;;;6145302;23;20100;-61
2024/01/30 11:43:19;;;;;;;12.68;7.57;;;;;;;;;;6146944;23;20025;-48
2024/01/30 11:46:14;;;;;;;14.23;7.35;;;;;;;;;;6145570;23;20029;-52
2024/01/30 11:49:02;;;;;;;11.52;6.72;;;;;;;;;;6145611;23;20100;-47
2024/01/30 11:51:56;;;;;;;11.20;7.10;;;;;;;;;;6144043;23;20362;-51
2024/01/30 11:54:43;;;;;;;11.98;7.32;;;;;;;;;;6143576;23;20018;-52
2024/01/30 11:57:36;;;;;;;12.32;8.15;;;;;;;;;;6144600;23;20071;-46
2024/01/30 12:00:25;;;;;;;12.18;7.68;;;;;;;;;;6144202;23;20080;-60
2024/01/30 12:03:19;;;;;;;11.93;7.30;;;;;;;;;;6143421;23;20026;-60
2024/01/30 12:06:06;;;;;;;14.45;7.88;;;;;;;;;;6143736;23;20025;-59
2024/01/30 12:09:03;;;;;;;12.32;6.80;;;;;;;;;;6143053;23;20021;-51
2024/01/30 12:11:52;;;;;;;15.18;8.93;;;;;;;;;;6143154;23;20026;-51
2024/01/30 12:14:45;;;;;;;15.52;9.00;;;;;;;;;;6145059;23;20080;-53
2024/01/30 12:17:40;;;;;;;12.52;7.18;;;;;;;;;;6143361;23;20033;-50
2024/01/30 12:20:34;;;;;;;15.02;8.88;;;;;;;;;;6144524;23;20025;-51
2024/01/30 12:23:28;;;;;;;16.23;9.40;;;;;;;;;;6143154;23;20022;-52
2024/01/30 12:26:21;;;;;;;14.60;9.15;;;;;;;;;;6143329;23;20116;-52
2024/01/30 12:29:15;;;;;;;19.63;10.95;;;;;;;;;;6146075;23;20022;-64
2024/01/30 12:32:15;;;;;;;18.13;9.45;;;;;;;;;;6144288;23;20024;-66
2024/01/30 12:35:02;;;;;;;14.23;8.23;;;;;;;;;;6144366;23;20463;-65
2024/01/30 12:38:00;;;;;;;19.77;9.80;;;;;;;;;;6145445;23;20072;-63
2024/01/30 12:40:47;;;;;;;14.48;8.40;;;;;;;;;;6146267;23;20414;-65
2024/01/30 12:43:42;;;;;;;17.00;10.23;;;;;;;;;;6146112;23;20022;-66
2024/01/30 12:46:29;;;;;;;13.90;8.20;;;;;;;;;;6147095;23;20021;-65
2024/01/30 12:49:22;;;;;;;19.67;10.50;;;;;;;;;;6147873;23;20025;-67
2024/01/30 12:52:10;;;;;;;22.00;10.15;;;;;;;;;;6145956;23;20161;-65
2024/01/30 12:55:04;;;;;;;17.95;10.00;;;;;;;;;;6145552;23;20018;-65
2024/01/30 12:57:51;;;;;;;17.35;10.25;;;;;;;;;;6145269;23;20110;-61
2024/01/30 13:00:45;;;;;;;22.80;11.60;;;;;;;;;;6145472;23;20040;-62
2024/01/30 13:03:32;;;;;;;24.63;11.95;;;;;;;;;;6147113;23;20104;-62
2024/01/30 13:06:26;;;;;;;23.40;11.60;;;;;;;;;;6144431;23;20028;-59
2024/01/30 13:09:13;;;;;;;21.95;11.00;;;;;;;;;;6145293;23;20045;-60
2024/01/30 13:12:06;;;;;;;28.88;13.40;;;;;;;;;;6146496;23;20025;-59
2024/01/30 13:14:54;;;;;;;25.73;13.88;;;;;;;;;;6144996;23;21048;-59
2024/01/30 13:17:48;;;;;;;40.78;14.93;;;;;;;;;;6144492;23;20026;-59
2024/01/30 13:20:42;;;;;;;27.95;12.93;;;;;;;;;;6144827;23;20029;-60
2024/01/30 13:23:36;;;;;;;32.95;14.18;;;;;;;;;;6144316;23;20034;-61
2024/01/30 13:26:23;;;;;;;42.38;15.70;;;;;;;;;;6145773;23;20384;-53
2024/01/30 13:29:17;;;;;;;44.90;15.25;;;;;;;;;;6147219;23;20076;-53
2024/01/30 13:32:05;;;;;;;35.22;13.40;;;;;;;;;;6145642;23;20111;-55
2024/01/30 13:34:59;;;;;;;41.67;14.88;;;;;;;;;;6146963;23;20063;-59
2024/01/30 13:37:48;;;;;;;36.30;14.38;;;;;;;;;;6144804;23;20430;-65
2024/01/30 13:40:40;;;;;;;44.65;15.40;;;;;;;;;;6146924;23;20036;-65
2024/01/30 13:43:28;;;;;;;51.20;16.13;;;;;;;;;;6145978;23;20028;-65
2024/01/30 13:46:21;;;;;;;49.67;16.30;;;;;;;;;;6146185;23;20101;-64
2024/01/30 13:49:09;;;;;;;60.55;16.75;;;;;;;;;;6145895;23;20021;-65
2024/01/30 13:52:06;;;;;;;51.15;16.10;;;;;;;;;;6144866;23;20652;-65
2024/01/30 13:55:01;;;;;;;47.22;16.25;;;;;;;;;;6144845;23;20108;-58
2024/01/30 13:57:55;;;;;;;67.00;18.80;;;;;;;;;;6145211;23;20049;-59
2024/01/30 14:00:42;;;;;;;63.53;17.83;;;;;;;;;;6144310;23;20032;-60
2024/01/30 14:03:36;;;;;;;57.28;16.52;;;;;;;;;;6144773;23;20059;-60
2024/01/30 14:06:23;;;;;;;41.45;14.73;;;;;;;;;;6143505;23;20100;-59
2024/01/30 14:09:32;;;;;;;65.53;17.92;;;;;;;;;;6146660;23;20041;-60
2024/01/30 14:12:23;;;;;;;52.38;16.08;;;;;;;;;;6145897;23;20032;-57
2024/01/30 14:15:12;;;;;;;42.33;15.27;;;;;;;;;;6144115;23;20025;-59
2024/01/30 14:18:17;;;;;;;41.03;14.88;;;;;;;;;;6145458;23;20072;-59
2024/01/30 14:21:11;;;;;;;46.58;14.77;;;;;;;;;;6116617;23;20072;-64
2024/01/30 14:24:07;;;;;;;43.85;14.90;;;;;;;;;;6115242;23;20030;-64
2024/01/30 14:27:01;;;;;;;59.28;17.83;;;;;;;;;;6115313;23;20783;-65
2024/01/30 14:29:56;;;;;;;52.85;16.30;;;;;;;;;;6114146;23;20026;-65
2024/01/30 14:32:49;;;;;;;42.55;15.30;;;;;;;;;;6115237;23;20394;-58
2024/01/30 14:35:37;;;;;;;51.15;17.30;;;;;;;;;;6114904;23;20492;-59
2024/01/30 14:38:30;;;;;;;53.90;17.05;;;;;;;;;;6116004;23;20089;-59
2024/01/30 14:41:18;;;;;;;43.65;16.42;;;;;;;;;;6114779;23;20026;-59
2024/01/30 14:44:11;;;;;;;55.33;18.63;;;;;;;;;;6116027;23;20518;-59
2024/01/30 14:46:59;;;;;;;49.30;19.23;;;;;;;;;;6116263;23;20030;-58
2024/01/30 14:49:53;;;;;;;52.38;19.55;;;;;;;;;;6115714;23;20030;-62
2024/01/30 14:52:40;;;;;;;49.80;18.48;;;;;;;;;;6114428;23;20381;-61
2024/01/30 14:55:34;;;;;;;56.10;19.10;;;;;;;;;;6114271;23;20026;-62
2024/01/30 14:58:21;;;;;;;57.05;20.15;;;;;;;;;;6115856;23;20025;-62
2024/01/30 15:01:14;;;;;;;58.65;21.15;;;;;;;;;;6115013;23;20033;-63
2024/01/30 15:04:02;;;;;;;47.80;18.58;;;;;;;;;;6114802;23;20022;-62
2024/01/30 15:06:55;;;;;;;40.80;17.95;;;;;;;;;;6113334;23;20104;-62
2024/01/30 15:09:58;;;;;;;55.55;21.40;;;;;;;;;;6115014;23;20527;-62
2024/01/30 15:12:52;;;;;;;49.72;19.10;;;;;;;;;;6114292;23;20092;-61
2024/01/30 15:15:39;;;;;;;42.38;17.52;;;;;;;;;;6112523;23;20021;-61
2024/01/30 15:18:45;;;;;;;48.17;20.40;;;;;;;;;;6119953;23;20400;-63
2024/01/30 15:21:40;;;;;;;44.53;18.45;;;;;;;;;;6140030;23;20092;-63
2024/01/30 15:24:34;;;;;;;96.40;48.50;;;;;;;;;;6144155;23;20021;-62
2024/01/30 15:27:21;;;;;;;53.95;23.83;;;;;;;;;;6143156;23;20021;-62
2024/01/30 15:30:15;;;;;;;63.50;27.42;;;;;;;;;;6144225;23;20031;-56
2024/01/30 15:33:02;;;;;;;72.13;26.00;;;;;;;;;;6142265;23;20025;-52
2024/01/30 15:35:56;;;;;;;73.05;25.17;;;;;;;;;;6143422;23;20471;-56
2024/01/30 15:38:43;;;;;;;58.53;24.40;;;;;;;;;;6145479;23;20267;-52
2024/01/30 15:41:36;;;;;;;77.05;28.83;;;;;;;;;;6144998;23;20025;-56
2024/01/30 15:44:24;;;;;;;63.70;27.05;;;;;;;;;;6144161;23;20080;-50
2024/01/30 15:47:17;;;;;;;88.35;30.08;;;;;;;;;;6144581;23;20021;-65
2024/01/30 15:50:05;;;;;;;59.92;26.52;;;;;;;;;;6144771;23;20224;-65
2024/01/30 15:52:59;;;;;;;156.90;37.78;;;;;;;;;;6145497;23;20535;-64
2024/01/30 15:55:46;;;;;;;77.38;29.58;;;;;;;;;;6144192;23;20025;-66
2024/01/30 15:58:40;;;;;;;72.03;28.85;;;;;;;;;;6144003;23;20475;-59
2024/01/30 16:01:27;;;;;;;62.42;27.02;;;;;;;;;;6143664;23;20053;-62
2024/01/30 16:04:21;;;;;;;65.65;32.00;;;;;;;;;;6145335;23;20076;-61
2024/01/30 16:07:14;;;;;;;85.57;36.65;;;;;;;;;;6142574;23;20096;-61
2024/01/30 16:10:08;;;;;;;69.05;31.05;;;;;;;;;;6144987;23;20028;-63
2024/01/30 16:13:03;;;;;;;85.75;36.35;;;;;;;;;;6142301;23;20021;-62
2024/01/30 16:15:57;;;;;;;94.88;38.08;;;;;;;;;;6145379;23;20025;-51
2024/01/30 16:18:51;;;;;;;86.22;36.40;;;;;;;;;;6145717;23;20045;-46
2024/01/30 16:21:45;;;;;;;79.20;32.08;;;;;;;;;;6144266;23;20033;-51